Charfield, United Kingdom
Current Conditions -  °F | °C
As of 11:50 AM on Friday 28 Nov 2014 (Local Time) from EGBJ Reporting Station
Rain Showers Rain Showers  
Wind Chill: 13°   Ceiling: Unl
Heat Index: 13°   Visibility: 6mi
Dew Point: 10°   Wind: 9mph
Humidity: 82%   Direction: 80°E
Pressure: 29.59"   Gusts: NA
Location:  51.63°N, 2.41°W
Report Text: EGBJ 281150Z 08008KT 050V120 9999 VCSH SCT016 13/10 Q1002
Loading
Personal Weather Stations






























Interactive Weather Map New forecast layout! Learn more

10-Day Weather Forecast

Advertisements
Track Severe Weather on mobile